AMX628 MMMX-MSLP
Flight info
| Callsign | AMX628 |
|---|---|
| Flight time | 1h 45m |
| Altitude | 37000 |
| Route | TEVOS2B TEVOS UT113 IZT J13 TAP UA317 AMESA AMESA2M |
| Aircraft | B38M/M-SDE1FGHILORVWXY/HB1 |
Departure
| Time | 2026-04-23 18:20 |
|---|---|
| Airport | Mexico City Benito Juárez International Airport (MMMX) |
Arrival
| Time | 2026-04-23 20:05 |
|---|---|
| Airport | El Salvador International Airport Saint Óscar Arnulfo Romero y Galdámez (MSLP) |
| Time | Latitude | Longitude | Altitude | Speed | Heading |
|---|---|---|---|---|---|
| 2026-04-23 17:36 | 19.42470 | -99.07914 | 7305 ft | 0 kts | 135° |
| 2026-04-23 18:11 | 19.42483 | -99.07927 | 7312 ft | 4 kts | 147° |
| 2026-04-23 18:12 | 19.42507 | -99.07937 | 7304 ft | 4 kts | 175° |
| 2026-04-23 18:12 | 19.42533 | -99.07934 | 7305 ft | 4 kts | 201° |
| 2026-04-23 18:12 | 19.42555 | -99.07920 | 7305 ft | 4 kts | 222° |
| 2026-04-23 18:12 | 19.42569 | -99.07903 | 7305 ft | 0 kts | 239° |
| 2026-04-23 18:15 | 19.42563 | -99.07914 | 7305 ft | 5 kts | 239° |
| 2026-04-23 18:16 | 19.42533 | -99.07969 | 7305 ft | 10 kts | 239° |
| 2026-04-23 18:16 | 19.42495 | -99.08034 | 7305 ft | 11 kts | 239° |
| 2026-04-23 18:16 | 19.42452 | -99.08114 | 7305 ft | 15 kts | 240° |
| 2026-04-23 18:17 | 19.42409 | -99.08308 | 7305 ft | 13 kts | 294° |
| 2026-04-23 18:17 | 19.42449 | -99.08410 | 7305 ft | 19 kts | 291° |
| 2026-04-23 18:17 | 19.42503 | -99.08563 | 7305 ft | 24 kts | 285° |
| 2026-04-23 18:17 | 19.42558 | -99.08726 | 7305 ft | 23 kts | 292° |
| 2026-04-23 18:18 | 19.42617 | -99.08871 | 7305 ft | 20 kts | 292° |
| 2026-04-23 18:18 | 19.42666 | -99.08999 | 7305 ft | 17 kts | 294° |
| 2026-04-23 18:18 | 19.42724 | -99.09063 | 7305 ft | 12 kts | 359° |
| 2026-04-23 18:18 | 19.42782 | -99.09007 | 7305 ft | 12 kts | 59° |
| 2026-04-23 18:19 | 19.42791 | -99.08991 | 7305 ft | 2 kts | 58° |
| 2026-04-23 18:19 | 19.42972 | -99.08667 | 7303 ft | 76 kts | 59° |
| 2026-04-23 18:19 | 19.43334 | -99.08028 | 7306 ft | 125 kts | 59° |
| 2026-04-23 18:19 | 19.43850 | -99.07110 | 7306 ft | 164 kts | 59° |
| 2026-04-23 18:20 | 19.44486 | -99.05977 | 7392 ft | 187 kts | 59° |
| 2026-04-23 18:20 | 19.44919 | -99.05193 | 7726 ft | 187 kts | 59° |
| 2026-04-23 18:20 | 19.45610 | -99.03952 | 8075 ft | 203 kts | 58° |
| 2026-04-23 18:20 | 19.46343 | -99.02662 | 8802 ft | 202 kts | 57° |
| 2026-04-23 18:21 | 19.47063 | -99.01386 | 9353 ft | 204 kts | 58° |
| 2026-04-23 18:21 | 19.47792 | -99.00091 | 9692 ft | 206 kts | 57° |
| 2026-04-23 18:21 | 19.48525 | -98.98786 | 10177 ft | 206 kts | 57° |
| 2026-04-23 18:21 | 19.49245 | -98.97480 | 10576 ft | 215 kts | 61° |
| 2026-04-23 18:22 | 19.49720 | -98.95880 | 10791 ft | 236 kts | 87° |
| 2026-04-23 18:22 | 19.49329 | -98.94150 | 11038 ft | 253 kts | 121° |
| 2026-04-23 18:22 | 19.48050 | -98.92809 | 11262 ft | 269 kts | 149° |
| 2026-04-23 18:22 | 19.46431 | -98.91692 | 11532 ft | 285 kts | 146° |
| 2026-04-23 18:23 | 19.44814 | -98.90496 | 12026 ft | 288 kts | 146° |
| 2026-04-23 18:23 | 19.41488 | -98.88011 | 13523 ft | 292 kts | 146° |
| 2026-04-23 18:24 | 19.38119 | -98.85494 | 14961 ft | 300 kts | 145° |
| 2026-04-23 18:24 | 19.36403 | -98.84215 | 15642 ft | 304 kts | 145° |
| 2026-04-23 18:24 | 19.34642 | -98.82923 | 16174 ft | 314 kts | 149° |
| 2026-04-23 18:25 | 19.30209 | -98.82074 | 16700 ft | 347 kts | 185° |
| 2026-04-23 18:25 | 19.27729 | -98.82204 | 16915 ft | 366 kts | 184° |
| 2026-04-23 18:25 | 19.25139 | -98.82343 | 17199 ft | 380 kts | 184° |
| 2026-04-23 18:25 | 19.22470 | -98.82495 | 17689 ft | 386 kts | 184° |
| 2026-04-23 18:26 | 19.19766 | -98.82653 | 18236 ft | 392 kts | 184° |
| 2026-04-23 18:26 | 19.17029 | -98.82815 | 18742 ft | 395 kts | 184° |
| 2026-04-23 18:26 | 19.14273 | -98.82979 | 19276 ft | 398 kts | 184° |
| 2026-04-23 18:26 | 19.11493 | -98.83143 | 19770 ft | 402 kts | 184° |
| 2026-04-23 18:27 | 19.08686 | -98.83309 | 20272 ft | 406 kts | 184° |
| 2026-04-23 18:27 | 19.05858 | -98.83476 | 20768 ft | 409 kts | 184° |
| 2026-04-23 18:27 | 19.03001 | -98.83645 | 21238 ft | 413 kts | 185° |
| 2026-04-23 18:27 | 19.00125 | -98.83815 | 21710 ft | 416 kts | 185° |
| 2026-04-23 18:28 | 18.97222 | -98.83987 | 22179 ft | 420 kts | 185° |
| 2026-04-23 18:28 | 18.94294 | -98.84189 | 22634 ft | 423 kts | 189° |
| 2026-04-23 18:28 | 18.91386 | -98.84678 | 23100 ft | 425 kts | 191° |
| 2026-04-23 18:28 | 18.88488 | -98.85159 | 23519 ft | 429 kts | 190° |
| 2026-04-23 18:29 | 18.85529 | -98.85633 | 23921 ft | 432 kts | 190° |
| 2026-04-23 18:29 | 18.82512 | -98.86106 | 24325 ft | 434 kts | 190° |
| 2026-04-23 18:29 | 18.79517 | -98.86573 | 24724 ft | 436 kts | 190° |
| 2026-04-23 18:29 | 18.76541 | -98.87035 | 25087 ft | 439 kts | 190° |
| 2026-04-23 18:30 | 18.73516 | -98.87505 | 25476 ft | 441 kts | 190° |
| 2026-04-23 18:30 | 18.70468 | -98.87978 | 25858 ft | 444 kts | 190° |
| 2026-04-23 18:30 | 18.67403 | -98.88453 | 26236 ft | 446 kts | 190° |
| 2026-04-23 18:30 | 18.64321 | -98.88931 | 26625 ft | 449 kts | 190° |
| 2026-04-23 18:31 | 18.61221 | -98.89420 | 26978 ft | 451 kts | 191° |
| 2026-04-23 18:31 | 18.58108 | -98.89917 | 27347 ft | 454 kts | 191° |
| 2026-04-23 18:31 | 18.54979 | -98.90414 | 27719 ft | 456 kts | 190° |
| 2026-04-23 18:31 | 18.51834 | -98.90915 | 28055 ft | 459 kts | 190° |
| 2026-04-23 18:32 | 18.48643 | -98.91196 | 28393 ft | 464 kts | 179° |
| 2026-04-23 18:32 | 18.45449 | -98.90657 | 28769 ft | 467 kts | 163° |
| 2026-04-23 18:32 | 18.42467 | -98.89292 | 29053 ft | 471 kts | 149° |
| 2026-04-23 18:32 | 18.39864 | -98.87199 | 29354 ft | 473 kts | 133° |
| 2026-04-23 18:33 | 18.37796 | -98.84513 | 29680 ft | 474 kts | 124° |
| 2026-04-23 18:33 | 18.35863 | -98.81686 | 29981 ft | 478 kts | 124° |
| 2026-04-23 18:33 | 18.33941 | -98.78822 | 30284 ft | 480 kts | 123° |
| 2026-04-23 18:33 | 18.32027 | -98.75932 | 30585 ft | 482 kts | 123° |
| 2026-04-23 18:34 | 18.30117 | -98.73027 | 30874 ft | 484 kts | 123° |
| 2026-04-23 18:34 | 18.28201 | -98.70108 | 31161 ft | 486 kts | 123° |
| 2026-04-23 18:34 | 18.26278 | -98.67174 | 31416 ft | 489 kts | 123° |
| 2026-04-23 18:34 | 18.24342 | -98.64223 | 31700 ft | 491 kts | 123° |
| 2026-04-23 18:35 | 18.22399 | -98.61263 | 31999 ft | 492 kts | 123° |
| 2026-04-23 18:35 | 18.20450 | -98.58294 | 32310 ft | 494 kts | 124° |
| 2026-04-23 18:35 | 18.18494 | -98.55317 | 32628 ft | 495 kts | 124° |
| 2026-04-23 18:35 | 18.16540 | -98.52342 | 33033 ft | 494 kts | 124° |
| 2026-04-23 18:36 | 18.14609 | -98.49358 | 33443 ft | 492 kts | 123° |
| 2026-04-23 18:36 | 18.12711 | -98.46370 | 33859 ft | 491 kts | 123° |
| 2026-04-23 18:36 | 18.10812 | -98.43395 | 34224 ft | 490 kts | 123° |
| 2026-04-23 18:36 | 18.08912 | -98.40421 | 34542 ft | 490 kts | 123° |
| 2026-04-23 18:37 | 18.07015 | -98.37453 | 34833 ft | 490 kts | 123° |
| 2026-04-23 18:37 | 18.05115 | -98.34481 | 35112 ft | 490 kts | 124° |
| 2026-04-23 18:37 | 18.03215 | -98.31512 | 35408 ft | 490 kts | 124° |
| 2026-04-23 18:37 | 18.01316 | -98.28545 | 35675 ft | 490 kts | 124° |
| 2026-04-23 18:38 | 17.99413 | -98.25573 | 35951 ft | 490 kts | 124° |
| 2026-04-23 18:38 | 17.97539 | -98.22647 | 36201 ft | 489 kts | 124° |
| 2026-04-23 18:38 | 17.95615 | -98.19647 | 36470 ft | 489 kts | 124° |
| 2026-04-23 18:38 | 17.93741 | -98.16722 | 36706 ft | 489 kts | 125° |
| 2026-04-23 18:39 | 17.91844 | -98.13767 | 36935 ft | 489 kts | 125° |
| 2026-04-23 18:39 | 17.88043 | -98.07845 | 36975 ft | 488 kts | 125° |
| 2026-04-23 18:40 | 17.84254 | -98.01948 | 37001 ft | 487 kts | 125° |
| 2026-04-23 18:40 | 17.80462 | -97.96050 | 37010 ft | 487 kts | 125° |
| 2026-04-23 18:41 | 17.76664 | -97.90150 | 37002 ft | 488 kts | 125° |
| 2026-04-23 18:41 | 17.72866 | -97.84255 | 37013 ft | 488 kts | 125° |
| 2026-04-23 18:42 | 17.69014 | -97.78400 | 37017 ft | 487 kts | 128° |
| 2026-04-23 18:42 | 17.64974 | -97.72694 | 37019 ft | 488 kts | 128° |
| 2026-04-23 18:43 | 17.60951 | -97.66969 | 37024 ft | 487 kts | 128° |
| 2026-04-23 18:43 | 17.56935 | -97.61252 | 37013 ft | 487 kts | 128° |
| 2026-04-23 18:44 | 17.52943 | -97.55577 | 37007 ft | 486 kts | 128° |
| 2026-04-23 18:44 | 17.48933 | -97.49880 | 37014 ft | 486 kts | 128° |
| 2026-04-23 18:45 | 17.44961 | -97.44156 | 37009 ft | 486 kts | 126° |
| 2026-04-23 18:45 | 17.41146 | -97.38310 | 37012 ft | 486 kts | 126° |
| 2026-04-23 18:46 | 17.37311 | -97.32484 | 37014 ft | 486 kts | 126° |
| 2026-04-23 18:46 | 17.33469 | -97.26652 | 36991 ft | 486 kts | 126° |
| 2026-04-23 18:47 | 17.29627 | -97.20827 | 36991 ft | 486 kts | 126° |
| 2026-04-23 18:47 | 17.25785 | -97.15005 | 36984 ft | 486 kts | 126° |
| 2026-04-23 18:48 | 17.21938 | -97.09194 | 36971 ft | 485 kts | 127° |
| 2026-04-23 18:48 | 17.18009 | -97.03462 | 36991 ft | 485 kts | 127° |
| 2026-04-23 18:49 | 17.14085 | -96.97727 | 37036 ft | 485 kts | 127° |
| 2026-04-23 18:49 | 17.10183 | -96.92027 | 37094 ft | 485 kts | 127° |
| 2026-04-23 18:50 | 17.06893 | -96.87224 | 37140 ft | 485 kts | 127° |
| 2026-04-23 18:50 | 17.02326 | -96.80563 | 37192 ft | 485 kts | 127° |
| 2026-04-23 18:51 | 16.98407 | -96.74831 | 37191 ft | 485 kts | 124° |
| 2026-04-23 18:51 | 16.96894 | -96.71686 | 37168 ft | 485 kts | 109° |
| 2026-04-23 18:51 | 16.95840 | -96.68338 | 37200 ft | 487 kts | 109° |
| 2026-04-23 18:52 | 16.93709 | -96.61611 | 37152 ft | 488 kts | 108° |
| 2026-04-23 18:52 | 16.91631 | -96.54863 | 36960 ft | 488 kts | 108° |
| 2026-04-23 18:53 | 16.89558 | -96.48112 | 36944 ft | 488 kts | 108° |
| 2026-04-23 18:53 | 16.87484 | -96.41366 | 36945 ft | 488 kts | 108° |
| 2026-04-23 18:54 | 16.85404 | -96.34610 | 36945 ft | 489 kts | 108° |
| 2026-04-23 18:54 | 16.83322 | -96.27857 | 36948 ft | 488 kts | 109° |
| 2026-04-23 18:55 | 16.81239 | -96.21110 | 36921 ft | 489 kts | 108° |
| 2026-04-23 18:55 | 16.79154 | -96.14366 | 36927 ft | 488 kts | 108° |
| 2026-04-23 18:56 | 16.77417 | -96.08755 | 36918 ft | 489 kts | 108° |
| 2026-04-23 18:56 | 16.74970 | -96.00857 | 36895 ft | 490 kts | 109° |
| 2026-04-23 18:57 | 16.72867 | -95.94079 | 36922 ft | 491 kts | 109° |
| 2026-04-23 18:57 | 16.70764 | -95.87311 | 36921 ft | 490 kts | 109° |
| 2026-04-23 18:58 | 16.68660 | -95.80552 | 36874 ft | 490 kts | 109° |
| 2026-04-23 18:58 | 16.66549 | -95.73778 | 36954 ft | 492 kts | 109° |
| 2026-04-23 18:59 | 16.64439 | -95.67016 | 36891 ft | 490 kts | 109° |
| 2026-04-23 18:59 | 16.62338 | -95.60291 | 36900 ft | 492 kts | 109° |
| 2026-04-23 19:00 | 16.60214 | -95.53501 | 36902 ft | 493 kts | 109° |
| 2026-04-23 19:00 | 16.58085 | -95.46706 | 36910 ft | 493 kts | 109° |
| 2026-04-23 19:01 | 16.55951 | -95.39905 | 36888 ft | 493 kts | 109° |
| 2026-04-23 19:01 | 16.53820 | -95.33116 | 36914 ft | 494 kts | 109° |
| 2026-04-23 19:02 | 16.52032 | -95.27426 | 36906 ft | 492 kts | 109° |
| 2026-04-23 19:02 | 16.49551 | -95.19547 | 36905 ft | 492 kts | 109° |
| 2026-04-23 19:03 | 16.47416 | -95.12771 | 36912 ft | 492 kts | 109° |
| 2026-04-23 19:03 | 16.46213 | -95.09444 | 36887 ft | 490 kts | 120° |
| 2026-04-23 19:03 | 16.44448 | -95.06429 | 36940 ft | 487 kts | 123° |
| 2026-04-23 19:04 | 16.40876 | -95.00401 | 36896 ft | 489 kts | 124° |
| 2026-04-23 19:04 | 16.37258 | -94.94399 | 36912 ft | 489 kts | 124° |
| 2026-04-23 19:05 | 16.33642 | -94.88421 | 36908 ft | 486 kts | 124° |
| 2026-04-23 19:05 | 16.30033 | -94.82462 | 36911 ft | 487 kts | 124° |
| 2026-04-23 19:06 | 16.26431 | -94.76516 | 36907 ft | 484 kts | 124° |
| 2026-04-23 19:06 | 16.22865 | -94.70637 | 36914 ft | 484 kts | 124° |
| 2026-04-23 19:07 | 16.19272 | -94.64718 | 36916 ft | 484 kts | 124° |
| 2026-04-23 19:07 | 16.15682 | -94.58809 | 36917 ft | 484 kts | 124° |
| 2026-04-23 19:08 | 16.12082 | -94.52886 | 36918 ft | 485 kts | 124° |
| 2026-04-23 19:08 | 16.08475 | -94.46958 | 36920 ft | 485 kts | 124° |
| 2026-04-23 19:09 | 16.04867 | -94.41034 | 36920 ft | 485 kts | 124° |
| 2026-04-23 19:09 | 16.01263 | -94.35120 | 36919 ft | 485 kts | 124° |
| 2026-04-23 19:10 | 15.97645 | -94.29189 | 36917 ft | 485 kts | 124° |
| 2026-04-23 19:10 | 15.94037 | -94.23278 | 36913 ft | 485 kts | 124° |
| 2026-04-23 19:11 | 15.91032 | -94.18359 | 36922 ft | 485 kts | 124° |
| 2026-04-23 19:11 | 15.87410 | -94.12435 | 36921 ft | 486 kts | 124° |
| 2026-04-23 19:12 | 15.83786 | -94.06511 | 36922 ft | 486 kts | 124° |
| 2026-04-23 19:12 | 15.80162 | -94.00592 | 36919 ft | 486 kts | 124° |
| 2026-04-23 19:13 | 15.76528 | -93.94662 | 36924 ft | 486 kts | 124° |
| 2026-04-23 19:13 | 15.72899 | -93.88745 | 36920 ft | 486 kts | 124° |
| 2026-04-23 19:14 | 15.69292 | -93.82866 | 36913 ft | 486 kts | 124° |
| 2026-04-23 19:14 | 15.65635 | -93.76912 | 36919 ft | 486 kts | 124° |
| 2026-04-23 19:15 | 15.61994 | -93.70989 | 36923 ft | 487 kts | 124° |
| 2026-04-23 19:15 | 15.58355 | -93.65072 | 36920 ft | 486 kts | 124° |
| 2026-04-23 19:16 | 15.54745 | -93.59210 | 36920 ft | 486 kts | 124° |
| 2026-04-23 19:16 | 15.51108 | -93.53306 | 36919 ft | 486 kts | 124° |
| 2026-04-23 19:17 | 15.45651 | -93.44458 | 36917 ft | 486 kts | 124° |
| 2026-04-23 19:17 | 15.42011 | -93.38560 | 36916 ft | 485 kts | 124° |
| 2026-04-23 19:18 | 15.38370 | -93.32667 | 36919 ft | 486 kts | 124° |
| 2026-04-23 19:18 | 15.34726 | -93.26773 | 36920 ft | 486 kts | 124° |
| 2026-04-23 19:19 | 15.29258 | -93.17939 | 36916 ft | 486 kts | 124° |
| 2026-04-23 19:20 | 15.23785 | -93.09106 | 36916 ft | 487 kts | 124° |
| 2026-04-23 19:20 | 15.20121 | -93.03199 | 36917 ft | 488 kts | 124° |
| 2026-04-23 19:21 | 15.14620 | -92.94336 | 36916 ft | 488 kts | 124° |
| 2026-04-23 19:22 | 15.10949 | -92.88429 | 36930 ft | 488 kts | 124° |
| 2026-04-23 19:22 | 15.05444 | -92.79576 | 36926 ft | 488 kts | 125° |
| 2026-04-23 19:23 | 15.01769 | -92.73675 | 36936 ft | 488 kts | 125° |
| 2026-04-23 19:24 | 14.96252 | -92.64827 | 36937 ft | 488 kts | 125° |
| 2026-04-23 19:24 | 14.90729 | -92.55978 | 36942 ft | 488 kts | 125° |
| 2026-04-23 19:25 | 14.83354 | -92.44179 | 36945 ft | 488 kts | 125° |
| 2026-04-23 19:26 | 14.77979 | -92.35231 | 36950 ft | 489 kts | 122° |
| 2026-04-23 19:27 | 14.69435 | -92.20031 | 36973 ft | 489 kts | 122° |
| 2026-04-23 19:28 | 14.62677 | -92.07898 | 36961 ft | 489 kts | 122° |
| 2026-04-23 19:29 | 14.57613 | -91.98759 | 36960 ft | 489 kts | 122° |
| 2026-04-23 19:30 | 14.52545 | -91.89625 | 36974 ft | 489 kts | 122° |
| 2026-04-23 19:31 | 14.47485 | -91.80516 | 36936 ft | 487 kts | 122° |
| 2026-04-23 19:31 | 14.44112 | -91.74449 | 36934 ft | 487 kts | 122° |
| 2026-04-23 19:32 | 14.40736 | -91.68381 | 36935 ft | 487 kts | 122° |
| 2026-04-23 19:32 | 14.37360 | -91.62319 | 36938 ft | 487 kts | 122° |
| 2026-04-23 19:33 | 14.33983 | -91.56259 | 36938 ft | 487 kts | 122° |
| 2026-04-23 19:33 | 14.28909 | -91.47161 | 36963 ft | 489 kts | 122° |
| 2026-04-23 19:34 | 14.25521 | -91.41093 | 36973 ft | 488 kts | 122° |
| 2026-04-23 19:35 | 14.20457 | -91.32030 | 36965 ft | 486 kts | 122° |
| 2026-04-23 19:35 | 14.17130 | -91.26015 | 36978 ft | 487 kts | 121° |
| 2026-04-23 19:36 | 14.13780 | -91.19956 | 37009 ft | 487 kts | 121° |
| 2026-04-23 19:36 | 14.10428 | -91.13898 | 37019 ft | 487 kts | 122° |
| 2026-04-23 19:37 | 14.07076 | -91.07845 | 37009 ft | 486 kts | 122° |
| 2026-04-23 19:37 | 14.03725 | -91.01798 | 37022 ft | 487 kts | 122° |
| 2026-04-23 19:38 | 14.00370 | -90.95749 | 37011 ft | 486 kts | 122° |
| 2026-04-23 19:38 | 13.97015 | -90.89703 | 36934 ft | 486 kts | 122° |
| 2026-04-23 19:39 | 13.93708 | -90.83631 | 36925 ft | 487 kts | 115° |
| 2026-04-23 19:39 | 13.91681 | -90.76971 | 36904 ft | 490 kts | 108° |
| 2026-04-23 19:40 | 13.89749 | -90.70267 | 36945 ft | 489 kts | 108° |
| 2026-04-23 19:40 | 13.87843 | -90.63545 | 36953 ft | 489 kts | 108° |
| 2026-04-23 19:41 | 13.85940 | -90.56832 | 36984 ft | 489 kts | 108° |
| 2026-04-23 19:41 | 13.84997 | -90.53505 | 36740 ft | 480 kts | 107° |
| 2026-04-23 19:41 | 13.84063 | -90.50216 | 36203 ft | 478 kts | 107° |
| 2026-04-23 19:41 | 13.83130 | -90.46930 | 35560 ft | 479 kts | 108° |
| 2026-04-23 19:42 | 13.82197 | -90.43648 | 35033 ft | 477 kts | 108° |
| 2026-04-23 19:42 | 13.81269 | -90.40383 | 34573 ft | 474 kts | 108° |
| 2026-04-23 19:42 | 13.80346 | -90.37138 | 34090 ft | 471 kts | 108° |
| 2026-04-23 19:42 | 13.79426 | -90.33905 | 33513 ft | 470 kts | 108° |
| 2026-04-23 19:43 | 13.78503 | -90.30696 | 32944 ft | 468 kts | 108° |
| 2026-04-23 19:43 | 13.77589 | -90.27534 | 32428 ft | 465 kts | 108° |
| 2026-04-23 19:43 | 13.76663 | -90.24324 | 31991 ft | 461 kts | 108° |
| 2026-04-23 19:43 | 13.75754 | -90.21179 | 31517 ft | 457 kts | 108° |
| 2026-04-23 19:44 | 13.74851 | -90.18053 | 31043 ft | 454 kts | 108° |
| 2026-04-23 19:44 | 13.73953 | -90.14946 | 30575 ft | 452 kts | 108° |
| 2026-04-23 19:44 | 13.73061 | -90.11854 | 30099 ft | 450 kts | 108° |
| 2026-04-23 19:44 | 13.72181 | -90.08764 | 29470 ft | 450 kts | 107° |
| 2026-04-23 19:45 | 13.71302 | -90.05683 | 28908 ft | 448 kts | 107° |
| 2026-04-23 19:45 | 13.70441 | -90.02666 | 28454 ft | 444 kts | 107° |
| 2026-04-23 19:45 | 13.69575 | -89.99638 | 28032 ft | 440 kts | 107° |
| 2026-04-23 19:45 | 13.68715 | -89.96632 | 27553 ft | 437 kts | 107° |
| 2026-04-23 19:46 | 13.67863 | -89.93648 | 27080 ft | 434 kts | 107° |
| 2026-04-23 19:46 | 13.67012 | -89.90675 | 26617 ft | 432 kts | 107° |
| 2026-04-23 19:46 | 13.66167 | -89.87722 | 26149 ft | 430 kts | 107° |
| 2026-04-23 19:46 | 13.65324 | -89.84780 | 25691 ft | 428 kts | 107° |
| 2026-04-23 19:47 | 13.64758 | -89.82806 | 25381 ft | 426 kts | 107° |
| 2026-04-23 19:47 | 13.63651 | -89.78944 | 24764 ft | 424 kts | 107° |
| 2026-04-23 19:47 | 13.62822 | -89.76054 | 24316 ft | 418 kts | 107° |
| 2026-04-23 19:47 | 13.62010 | -89.73206 | 23940 ft | 411 kts | 104° |
| 2026-04-23 19:48 | 13.61435 | -89.70368 | 23624 ft | 403 kts | 100° |
| 2026-04-23 19:48 | 13.60945 | -89.67507 | 22739 ft | 409 kts | 100° |
| 2026-04-23 19:48 | 13.60451 | -89.64623 | 21892 ft | 409 kts | 100° |
| 2026-04-23 19:48 | 13.59960 | -89.61760 | 21136 ft | 405 kts | 100° |
| 2026-04-23 19:49 | 13.59469 | -89.58922 | 20393 ft | 401 kts | 100° |
| 2026-04-23 19:49 | 13.58981 | -89.56117 | 19681 ft | 397 kts | 100° |
| 2026-04-23 19:49 | 13.58496 | -89.53337 | 18972 ft | 393 kts | 99° |
| 2026-04-23 19:49 | 13.58009 | -89.50589 | 18362 ft | 388 kts | 100° |
| 2026-04-23 19:50 | 13.57524 | -89.47884 | 17671 ft | 383 kts | 99° |
| 2026-04-23 19:50 | 13.57314 | -89.45186 | 16984 ft | 376 kts | 85° |
| 2026-04-23 19:50 | 13.57649 | -89.42548 | 16364 ft | 369 kts | 80° |
| 2026-04-23 19:50 | 13.58044 | -89.39968 | 15772 ft | 363 kts | 80° |
| 2026-04-23 19:51 | 13.58441 | -89.37427 | 15175 ft | 357 kts | 80° |
| 2026-04-23 19:51 | 13.58824 | -89.34921 | 14597 ft | 352 kts | 80° |
| 2026-04-23 19:51 | 13.58862 | -89.32429 | 14002 ft | 349 kts | 99° |
| 2026-04-23 19:51 | 13.58043 | -89.30105 | 13381 ft | 346 kts | 121° |
| 2026-04-23 19:52 | 13.57076 | -89.28819 | 12966 ft | 343 kts | 135° |
| 2026-04-23 19:52 | 13.54389 | -89.27174 | 12187 ft | 336 kts | 164° |
| 2026-04-23 19:52 | 13.52160 | -89.26667 | 11640 ft | 330 kts | 169° |
| 2026-04-23 19:52 | 13.49924 | -89.26241 | 11092 ft | 325 kts | 169° |
| 2026-04-23 19:53 | 13.47711 | -89.25817 | 10541 ft | 321 kts | 169° |
| 2026-04-23 19:53 | 13.45489 | -89.25637 | 10079 ft | 314 kts | 188° |
| 2026-04-23 19:53 | 13.43459 | -89.26311 | 9595 ft | 305 kts | 211° |
| 2026-04-23 19:53 | 13.41930 | -89.27720 | 9140 ft | 297 kts | 236° |
| 2026-04-23 19:54 | 13.41104 | -89.29622 | 8688 ft | 289 kts | 256° |
| 2026-04-23 19:54 | 13.40708 | -89.31622 | 8247 ft | 283 kts | 259° |
| 2026-04-23 19:54 | 13.40352 | -89.33594 | 7807 ft | 279 kts | 259° |
| 2026-04-23 19:54 | 13.40006 | -89.35536 | 7384 ft | 275 kts | 259° |
| 2026-04-23 19:55 | 13.39667 | -89.37448 | 6961 ft | 271 kts | 260° |
| 2026-04-23 19:55 | 13.39334 | -89.39341 | 6554 ft | 267 kts | 260° |
| 2026-04-23 19:55 | 13.39007 | -89.41212 | 6131 ft | 264 kts | 260° |
| 2026-04-23 19:55 | 13.38690 | -89.43046 | 5768 ft | 259 kts | 259° |
| 2026-04-23 19:56 | 13.38383 | -89.44839 | 5476 ft | 248 kts | 260° |
| 2026-04-23 19:56 | 13.37934 | -89.46478 | 5174 ft | 233 kts | 240° |
| 2026-04-23 19:56 | 13.36818 | -89.47632 | 4820 ft | 222 kts | 207° |
| 2026-04-23 19:56 | 13.35372 | -89.47951 | 4469 ft | 216 kts | 174° |
| 2026-04-23 19:57 | 13.33986 | -89.47397 | 4142 ft | 216 kts | 145° |
| 2026-04-23 19:57 | 13.32843 | -89.46419 | 4054 ft | 216 kts | 135° |
| 2026-04-23 19:57 | 13.32277 | -89.45541 | 3987 ft | 217 kts | 112° |
| 2026-04-23 19:57 | 13.31842 | -89.43538 | 4026 ft | 219 kts | 100° |
| 2026-04-23 19:58 | 13.31605 | -89.41986 | 4025 ft | 220 kts | 100° |
| 2026-04-23 19:58 | 13.31411 | -89.40427 | 4005 ft | 221 kts | 91° |
| 2026-04-23 19:58 | 13.31711 | -89.38909 | 4004 ft | 212 kts | 71° |
| 2026-04-23 19:58 | 13.32333 | -89.37599 | 4007 ft | 201 kts | 56° |
| 2026-04-23 19:59 | 13.33070 | -89.36390 | 3974 ft | 200 kts | 68° |
| 2026-04-23 19:59 | 13.33407 | -89.35510 | 3951 ft | 200 kts | 70° |
| 2026-04-23 19:59 | 13.33897 | -89.34179 | 3878 ft | 199 kts | 70° |
| 2026-04-23 19:59 | 13.34381 | -89.32850 | 3770 ft | 199 kts | 70° |
| 2026-04-23 20:00 | 13.34869 | -89.31519 | 3681 ft | 200 kts | 70° |
| 2026-04-23 20:00 | 13.35358 | -89.30181 | 3617 ft | 200 kts | 70° |
| 2026-04-23 20:00 | 13.35841 | -89.28850 | 3503 ft | 198 kts | 71° |
| 2026-04-23 20:00 | 13.36304 | -89.27519 | 3339 ft | 198 kts | 72° |
| 2026-04-23 20:01 | 13.36769 | -89.26184 | 3166 ft | 199 kts | 71° |
| 2026-04-23 20:01 | 13.37238 | -89.24854 | 2996 ft | 198 kts | 71° |
| 2026-04-23 20:01 | 13.37711 | -89.23522 | 2763 ft | 198 kts | 71° |
| 2026-04-23 20:01 | 13.38180 | -89.22200 | 2564 ft | 196 kts | 71° |
| 2026-04-23 20:02 | 13.38644 | -89.20895 | 2355 ft | 193 kts | 71° |
| 2026-04-23 20:02 | 13.39100 | -89.19616 | 2164 ft | 184 kts | 71° |
| 2026-04-23 20:02 | 13.39514 | -89.18452 | 2013 ft | 167 kts | 71° |
| 2026-04-23 20:02 | 13.39907 | -89.17345 | 1824 ft | 164 kts | 71° |
| 2026-04-23 20:03 | 13.40299 | -89.16241 | 1665 ft | 164 kts | 72° |
| 2026-04-23 20:03 | 13.40688 | -89.15146 | 1466 ft | 162 kts | 71° |
| 2026-04-23 20:03 | 13.41073 | -89.14064 | 1291 ft | 161 kts | 71° |
| 2026-04-23 20:03 | 13.41456 | -89.12986 | 1110 ft | 161 kts | 71° |
| 2026-04-23 20:04 | 13.41841 | -89.11904 | 960 ft | 162 kts | 71° |
| 2026-04-23 20:04 | 13.42228 | -89.10815 | 801 ft | 162 kts | 71° |
| 2026-04-23 20:04 | 13.42615 | -89.09727 | 625 ft | 162 kts | 70° |
| 2026-04-23 20:04 | 13.42998 | -89.08648 | 454 ft | 161 kts | 71° |
| 2026-04-23 20:05 | 13.43380 | -89.07570 | 315 ft | 162 kts | 71° |
| 2026-04-23 20:05 | 13.43765 | -89.06493 | 159 ft | 152 kts | 71° |
| 2026-04-23 20:05 | 13.44036 | -89.05731 | 93 ft | 75 kts | 70° |
| 2026-04-23 20:05 | 13.44151 | -89.05404 | 94 ft | 23 kts | 69° |
| 2026-04-23 20:06 | 13.44248 | -89.05339 | 97 ft | 15 kts | 340° |
| 2026-04-23 20:06 | 13.44318 | -89.05365 | 95 ft | 0 kts | 340° |
| 2026-04-23 20:07 | 13.44337 | -89.05396 | 95 ft | 12 kts | 272° |
| 2026-04-23 20:07 | 13.44304 | -89.05510 | 94 ft | 19 kts | 250° |
| 2026-04-23 20:07 | 13.44258 | -89.05636 | 96 ft | 18 kts | 250° |
| 2026-04-23 20:08 | 13.44216 | -89.05754 | 94 ft | 17 kts | 249° |
| 2026-04-23 20:08 | 13.44178 | -89.05861 | 94 ft | 14 kts | 258° |
| 2026-04-23 20:08 | 13.44220 | -89.05915 | 94 ft | 10 kts | 336° |
| 2026-04-23 20:08 | 13.44279 | -89.05938 | 96 ft | 8 kts | 341° |
| 2026-04-23 20:09 | 13.44318 | -89.05952 | 97 ft | 3 kts | 341° |
| 2026-04-23 20:09 | 13.44328 | -89.05956 | 97 ft | 0 kts | 341° |